sensor_id;sensor_type;location;lat;lon;timestamp;temperature;humidity
36818;DHT22;22761;51.542;16.450;2022-12-11T00:00:26;3.44;69.25
36818;DHT22;22761;51.542;16.450;2022-12-11T00:02:55;3.43;69.29
36818;DHT22;22761;51.542;16.450;2022-12-11T00:05:22;3.43;69.39
36818;DHT22;22761;51.542;16.450;2022-12-11T00:07:49;3.47;69.40
36818;DHT22;22761;51.542;16.450;2022-12-11T00:10:17;3.44;69.37
36818;DHT22;22761;51.542;16.450;2022-12-11T00:12:44;3.46;69.40
36818;DHT22;22761;51.542;16.450;2022-12-11T00:15:11;3.43;69.56
36818;DHT22;22761;51.542;16.450;2022-12-11T00:17:38;3.44;69.68
36818;DHT22;22761;51.542;16.450;2022-12-11T00:20:06;3.47;69.69
36818;DHT22;22761;51.542;16.450;2022-12-11T00:22:34;3.46;69.52
36818;DHT22;22761;51.542;16.450;2022-12-11T00:25:01;3.44;69.54
36818;DHT22;22761;51.542;16.450;2022-12-11T00:27:28;3.43;69.55
36818;DHT22;22761;51.542;16.450;2022-12-11T00:29:55;3.37;69.31
36818;DHT22;22761;51.542;16.450;2022-12-11T00:32:22;3.38;69.46
36818;DHT22;22761;51.542;16.450;2022-12-11T00:34:49;3.37;69.38
36818;DHT22;22761;51.542;16.450;2022-12-11T00:37:16;3.32;69.25
36818;DHT22;22761;51.542;16.450;2022-12-11T00:39:43;3.28;69.31
36818;DHT22;22761;51.542;16.450;2022-12-11T00:42:11;3.24;69.28
36818;DHT22;22761;51.542;16.450;2022-12-11T00:44:38;3.19;69.41
36818;DHT22;22761;51.542;16.450;2022-12-11T00:47:05;3.16;69.40
36818;DHT22;22761;51.542;16.450;2022-12-11T00:49:37;3.14;69.27
36818;DHT22;22761;51.542;16.450;2022-12-11T00:52:04;3.07;69.41
36818;DHT22;22761;51.542;16.450;2022-12-11T00:54:31;3.06;69.62
36818;DHT22;22761;51.542;16.450;2022-12-11T00:56:59;3.06;69.48
36818;DHT22;22761;51.542;16.450;2022-12-11T00:59:27;3.04;69.70
36818;DHT22;22761;51.542;16.450;2022-12-11T01:01:55;3.03;69.90
36818;DHT22;22761;51.542;16.450;2022-12-11T01:04:22;3.06;69.79
36818;DHT22;22761;51.542;16.450;2022-12-11T01:06:50;3.02;69.93
36818;DHT22;22761;51.542;16.450;2022-12-11T01:09:17;3.03;70.10
36818;DHT22;22761;51.542;16.450;2022-12-11T01:12:03;3.02;69.94
36818;DHT22;22761;51.542;16.450;2022-12-11T01:14:30;3.02;69.83
36818;DHT22;22761;51.542;16.450;2022-12-11T01:16:57;3.03;69.83
36818;DHT22;22761;51.542;16.450;2022-12-11T01:19:25;3.02;69.82
36818;DHT22;22761;51.542;16.450;2022-12-11T01:21:52;3.03;69.87
36818;DHT22;22761;51.542;16.450;2022-12-11T01:24:19;3.03;69.65
36818;DHT22;22761;51.542;16.450;2022-12-11T01:26:46;3.03;69.69
36818;DHT22;22761;51.542;16.450;2022-12-11T01:29:13;3.04;69.90
36818;DHT22;22761;51.542;16.450;2022-12-11T01:31:40;3.09;69.88
36818;DHT22;22761;51.542;16.450;2022-12-11T01:34:07;3.13;69.83
36818;DHT22;22761;51.542;16.450;2022-12-11T01:36:34;3.13;69.48
36818;DHT22;22761;51.542;16.450;2022-12-11T01:39:02;3.14;69.43
36818;DHT22;22761;51.542;16.450;2022-12-11T01:41:29;3.13;69.65
36818;DHT22;22761;51.542;16.450;2022-12-11T01:46:44;3.16;69.45
36818;DHT22;22761;51.542;16.450;2022-12-11T01:49:13;3.20;69.36
36818;DHT22;22761;51.542;16.450;2022-12-11T01:52:05;3.20;69.22
36818;DHT22;22761;51.542;16.450;2022-12-11T01:54:31;3.13;69.35
36818;DHT22;22761;51.542;16.450;2022-12-11T01:57:03;3.20;69.49
36818;DHT22;22761;51.542;16.450;2022-12-11T01:59:33;3.23;69.25
36818;DHT22;22761;51.542;16.450;2022-12-11T02:02:11;3.24;69.23
36818;DHT22;22761;51.542;16.450;2022-12-11T02:04:39;3.24;69.26
36818;DHT22;22761;51.542;16.450;2022-12-11T02:07:09;3.24;68.94
36818;DHT22;22761;51.542;16.450;2022-12-11T02:09:38;3.26;69.03
36818;DHT22;22761;51.542;16.450;2022-12-11T02:12:41;3.27;68.94
36818;DHT22;22761;51.542;16.450;2022-12-11T02:15:39;3.24;69.07
36818;DHT22;22761;51.542;16.450;2022-12-11T02:18:30;3.28;68.93
36818;DHT22;22761;51.542;16.450;2022-12-11T02:27:29;3.24;68.65
36818;DHT22;22761;51.542;16.450;2022-12-11T02:30:08;3.17;68.74
36818;DHT22;22761;51.542;16.450;2022-12-11T02:32:56;3.17;68.74
36818;DHT22;22761;51.542;16.450;2022-12-11T02:35:38;3.19;68.70
36818;DHT22;22761;51.542;16.450;2022-12-11T02:38:29;3.14;68.71
36818;DHT22;22761;51.542;16.450;2022-12-11T02:40:57;3.14;68.94
36818;DHT22;22761;51.542;16.450;2022-12-11T02:43:26;3.19;68.81
36818;DHT22;22761;51.542;16.450;2022-12-11T02:45:56;3.20;68.78
36818;DHT22;22761;51.542;16.450;2022-12-11T02:48:23;3.21;68.84
36818;DHT22;22761;51.542;16.450;2022-12-11T02:50:54;3.23;68.71
36818;DHT22;22761;51.542;16.450;2022-12-11T02:53:26;3.23;68.63
36818;DHT22;22761;51.542;16.450;2022-12-11T02:56:12;3.23;68.63
36818;DHT22;22761;51.542;16.450;2022-12-11T02:58:32;3.23;68.48
36818;DHT22;22761;51.542;16.450;2022-12-11T03:01:00;3.17;68.82
36818;DHT22;22761;51.542;16.450;2022-12-11T03:03:28;3.23;68.87
36818;DHT22;22761;51.542;16.450;2022-12-11T03:05:56;3.26;68.67
36818;DHT22;22761;51.542;16.450;2022-12-11T03:08:23;3.24;68.79
36818;DHT22;22761;51.542;16.450;2022-12-11T03:10:50;3.26;68.23
36818;DHT22;22761;51.542;16.450;2022-12-11T03:13:20;3.21;68.14
36818;DHT22;22761;51.542;16.450;2022-12-11T03:21:54;3.16;68.08
36818;DHT22;22761;51.542;16.450;2022-12-11T03:27:32;3.07;68.49
36818;DHT22;22761;51.542;16.450;2022-12-11T03:30:04;3.06;68.55
36818;DHT22;22761;51.542;16.450;2022-12-11T03:32:49;3.04;68.16
36818;DHT22;22761;51.542;16.450;2022-12-11T03:35:33;2.99;68.46
36818;DHT22;22761;51.542;16.450;2022-12-11T03:38:09;2.95;68.55
36818;DHT22;22761;51.542;16.450;2022-12-11T03:40:35;2.95;68.79
36818;DHT22;22761;51.542;16.450;2022-12-11T03:43:04;2.98;68.71
36818;DHT22;22761;51.542;16.450;2022-12-11T03:45:33;2.98;68.89
36818;DHT22;22761;51.542;16.450;2022-12-11T03:48:02;2.96;68.87
36818;DHT22;22761;51.542;16.450;2022-12-11T03:50:31;2.98;68.82
36818;DHT22;22761;51.542;16.450;2022-12-11T03:52:59;2.95;69.11
36818;DHT22;22761;51.542;16.450;2022-12-11T03:55:29;2.95;69.24
36818;DHT22;22761;51.542;16.450;2022-12-11T03:57:56;2.99;69.17
36818;DHT22;22761;51.542;16.450;2022-12-11T04:00:24;2.95;69.09
36818;DHT22;22761;51.542;16.450;2022-12-11T04:02:51;2.95;69.26
36818;DHT22;22761;51.542;16.450;2022-12-11T04:05:42;2.93;69.45
36818;DHT22;22761;51.542;16.450;2022-12-11T04:08:10;2.95;69.53
36818;DHT22;22761;51.542;16.450;2022-12-11T04:10:39;2.99;69.56
36818;DHT22;22761;51.542;16.450;2022-12-11T04:13:08;2.99;69.54
36818;DHT22;22761;51.542;16.450;2022-12-11T04:15:36;3.02;69.49
36818;DHT22;22761;51.542;16.450;2022-12-11T04:18:05;3.04;69.41
36818;DHT22;22761;51.542;16.450;2022-12-11T04:20:54;3.02;69.27
36818;DHT22;22761;51.542;16.450;2022-12-11T04:23:40;3.02;68.99
36818;DHT22;22761;51.542;16.450;2022-12-11T04:26:25;2.98;69.11
36818;DHT22;22761;51.542;16.450;2022-12-11T04:28:52;2.92;69.12
36818;DHT22;22761;51.542;16.450;2022-12-11T04:31:21;2.88;69.24
36818;DHT22;22761;51.542;16.450;2022-12-11T04:33:48;2.83;69.20
36818;DHT22;22761;51.542;16.450;2022-12-11T04:36:15;2.82;69.41
36818;DHT22;22761;51.542;16.450;2022-12-11T04:38:42;2.82;69.53
36818;DHT22;22761;51.542;16.450;2022-12-11T04:41:13;2.82;69.48
36818;DHT22;22761;51.542;16.450;2022-12-11T04:43:40;2.79;69.17
36818;DHT22;22761;51.542;16.450;2022-12-11T04:46:14;2.72;69.41
36818;DHT22;22761;51.542;16.450;2022-12-11T04:48:41;2.72;69.37
36818;DHT22;22761;51.542;16.450;2022-12-11T04:51:09;2.68;69.14
36818;DHT22;22761;51.542;16.450;2022-12-11T04:53:37;2.60;69.30
36818;DHT22;22761;51.542;16.450;2022-12-11T04:56:06;2.60;69.47
36818;DHT22;22761;51.542;16.450;2022-12-11T04:58:34;2.57;69.74
36818;DHT22;22761;51.542;16.450;2022-12-11T05:01:17;2.57;69.62
36818;DHT22;22761;51.542;16.450;2022-12-11T05:03:45;2.55;69.64
36818;DHT22;22761;51.542;16.450;2022-12-11T05:06:12;2.53;69.76
36818;DHT22;22761;51.542;16.450;2022-12-11T05:08:41;2.54;69.69
36818;DHT22;22761;51.542;16.450;2022-12-11T05:11:12;2.53;69.57
36818;DHT22;22761;51.542;16.450;2022-12-11T05:13:40;2.53;69.59
36818;DHT22;22761;51.542;16.450;2022-12-11T05:16:09;2.51;69.47
36818;DHT22;22761;51.542;16.450;2022-12-11T05:18:36;2.51;69.50
36818;DHT22;22761;51.542;16.450;2022-12-11T05:21:10;2.51;69.52
36818;DHT22;22761;51.542;16.450;2022-12-11T05:23:39;2.53;69.34
36818;DHT22;22761;51.542;16.450;2022-12-11T05:26:11;2.48;69.52
36818;DHT22;22761;51.542;16.450;2022-12-11T05:28:39;2.44;69.45
36818;DHT22;22761;51.542;16.450;2022-12-11T05:31:13;2.44;69.47
36818;DHT22;22761;51.542;16.450;2022-12-11T05:33:42;2.43;69.68
36818;DHT22;22761;51.542;16.450;2022-12-11T05:36:20;2.40;69.57
36818;DHT22;22761;51.542;16.450;2022-12-11T05:38:44;2.38;69.59
36818;DHT22;22761;51.542;16.450;2022-12-11T05:41:15;2.36;69.63
36818;DHT22;22761;51.542;16.450;2022-12-11T05:43:42;2.37;69.68
36818;DHT22;22761;51.542;16.450;2022-12-11T05:46:17;2.36;69.79
36818;DHT22;22761;51.542;16.450;2022-12-11T05:48:47;2.37;69.79
36818;DHT22;22761;51.542;16.450;2022-12-11T05:51:16;2.40;69.87
36818;DHT22;22761;51.542;16.450;2022-12-11T05:53:45;2.43;69.71
36818;DHT22;22761;51.542;16.450;2022-12-11T05:56:16;2.41;69.49
36818;DHT22;22761;51.542;16.450;2022-12-11T05:58:46;2.40;69.43
36818;DHT22;22761;51.542;16.450;2022-12-11T06:01:18;2.38;69.55
36818;DHT22;22761;51.542;16.450;2022-12-11T06:03:46;2.36;69.65
36818;DHT22;22761;51.542;16.450;2022-12-11T06:06:14;2.33;69.74
36818;DHT22;22761;51.542;16.450;2022-12-11T06:08:41;2.34;69.73
36818;DHT22;22761;51.542;16.450;2022-12-11T06:11:13;2.37;69.70
36818;DHT22;22761;51.542;16.450;2022-12-11T06:13:40;2.37;69.66
36818;DHT22;22761;51.542;16.450;2022-12-11T06:16:08;2.37;69.67
36818;DHT22;22761;51.542;16.450;2022-12-11T06:18:41;2.33;69.77
36818;DHT22;22761;51.542;16.450;2022-12-11T06:21:17;2.32;69.85
36818;DHT22;22761;51.542;16.450;2022-12-11T06:23:51;2.37;69.82
36818;DHT22;22761;51.542;16.450;2022-12-11T06:26:19;2.41;69.88
36818;DHT22;22761;51.542;16.450;2022-12-11T06:28:46;2.46;69.60
36818;DHT22;22761;51.542;16.450;2022-12-11T06:31:14;2.46;69.34
36818;DHT22;22761;51.542;16.450;2022-12-11T06:33:42;2.46;69.39
36818;DHT22;22761;51.542;16.450;2022-12-11T06:36:13;2.46;69.38
36818;DHT22;22761;51.542;16.450;2022-12-11T06:38:40;2.47;69.49
36818;DHT22;22761;51.542;16.450;2022-12-11T06:41:08;2.51;69.34
36818;DHT22;22761;51.542;16.450;2022-12-11T06:43:37;2.50;69.40
36818;DHT22;22761;51.542;16.450;2022-12-11T06:46:12;2.53;69.62
36818;DHT22;22761;51.542;16.450;2022-12-11T06:48:40;2.57;69.31
36818;DHT22;22761;51.542;16.450;2022-12-11T06:51:11;2.57;69.04
36818;DHT22;22761;51.542;16.450;2022-12-11T06:53:39;2.54;69.14
36818;DHT22;22761;51.542;16.450;2022-12-11T06:56:12;2.54;69.21
36818;DHT22;22761;51.542;16.450;2022-12-11T06:58:41;2.55;69.10
36818;DHT22;22761;51.542;16.450;2022-12-11T07:01:25;2.58;69.30
36818;DHT22;22761;51.542;16.450;2022-12-11T07:03:51;2.63;69.21
36818;DHT22;22761;51.542;16.450;2022-12-11T07:06:19;2.65;68.73
36818;DHT22;22761;51.542;16.450;2022-12-11T07:08:46;2.64;68.77
36818;DHT22;22761;51.542;16.450;2022-12-11T07:11:14;2.67;68.61
36818;DHT22;22761;51.542;16.450;2022-12-11T07:13:42;2.67;68.56
36818;DHT22;22761;51.542;16.450;2022-12-11T07:16:11;2.63;68.55
36818;DHT22;22761;51.542;16.450;2022-12-11T07:18:41;2.63;68.69
36818;DHT22;22761;51.542;16.450;2022-12-11T07:21:10;2.65;68.45
36818;DHT22;22761;51.542;16.450;2022-12-11T07:23:38;2.64;68.14
36818;DHT22;22761;51.542;16.450;2022-12-11T07:26:10;2.61;68.34
36818;DHT22;22761;51.542;16.450;2022-12-11T07:28:37;2.60;68.58
36818;DHT22;22761;51.542;16.450;2022-12-11T07:31:13;2.65;68.60
36818;DHT22;22761;51.542;16.450;2022-12-11T07:33:41;2.68;68.40
36818;DHT22;22761;51.542;16.450;2022-12-11T07:36:10;2.68;68.24
36818;DHT22;22761;51.542;16.450;2022-12-11T07:38:39;2.74;68.25
36818;DHT22;22761;51.542;16.450;2022-12-11T07:41:10;2.76;67.98
36818;DHT22;22761;51.542;16.450;2022-12-11T07:43:38;2.74;68.15
36818;DHT22;22761;51.542;16.450;2022-12-11T07:46:09;2.76;67.85
36818;DHT22;22761;51.542;16.450;2022-12-11T07:48:38;2.75;67.40
36818;DHT22;22761;51.542;16.450;2022-12-11T07:53:48;2.72;68.01
36818;DHT22;22761;51.542;16.450;2022-12-11T07:56:16;2.72;67.84
36818;DHT22;22761;51.542;16.450;2022-12-11T07:58:45;2.72;67.96
36818;DHT22;22761;51.542;16.450;2022-12-11T08:01:23;2.74;67.69
36818;DHT22;22761;51.542;16.450;2022-12-11T08:03:47;2.78;67.74
36818;DHT22;22761;51.542;16.450;2022-12-11T08:06:15;2.79;67.20
36818;DHT22;22761;51.542;16.450;2022-12-11T08:08:42;2.76;67.26
36818;DHT22;22761;51.542;16.450;2022-12-11T08:11:13;2.72;67.26
36818;DHT22;22761;51.542;16.450;2022-12-11T08:13:41;2.65;67.56
36818;DHT22;22761;51.542;16.450;2022-12-11T08:16:11;2.64;67.46
36818;DHT22;22761;51.542;16.450;2022-12-11T08:18:42;2.64;67.52
36818;DHT22;22761;51.542;16.450;2022-12-11T08:21:26;2.63;67.67
36818;DHT22;22761;51.542;16.450;2022-12-11T08:23:50;2.68;67.85
36818;DHT22;22761;51.542;16.450;2022-12-11T08:26:22;2.71;68.01
36818;DHT22;22761;51.542;16.450;2022-12-11T08:28:50;2.81;67.17
36818;DHT22;22761;51.542;16.450;2022-12-11T08:31:19;2.83;67.05
36818;DHT22;22761;51.542;16.450;2022-12-11T08:33:47;2.88;67.05
36818;DHT22;22761;51.542;16.450;2022-12-11T08:36:19;2.91;67.02
36818;DHT22;22761;51.542;16.450;2022-12-11T08:38:46;2.89;66.53
36818;DHT22;22761;51.542;16.450;2022-12-11T08:41:25;2.91;66.36
36818;DHT22;22761;51.542;16.450;2022-12-11T08:43:49;2.83;66.55
36818;DHT22;22761;51.542;16.450;2022-12-11T08:46:19;2.88;66.85
36818;DHT22;22761;51.542;16.450;2022-12-11T08:48:58;2.98;66.54
36818;DHT22;22761;51.542;16.450;2022-12-11T08:51:28;3.00;66.15
36818;DHT22;22761;51.542;16.450;2022-12-11T08:53:59;3.02;65.78
36818;DHT22;22761;51.542;16.450;2022-12-11T08:56:27;3.00;65.64
36818;DHT22;22761;51.542;16.450;2022-12-11T08:58:57;3.00;65.42
36818;DHT22;22761;51.542;16.450;2022-12-11T09:01:25;3.00;65.12
36818;DHT22;22761;51.542;16.450;2022-12-11T09:03:54;2.98;65.22
36818;DHT22;22761;51.542;16.450;2022-12-11T09:06:25;2.95;65.10
36818;DHT22;22761;51.542;16.450;2022-12-11T09:08:53;2.92;64.89
36818;DHT22;22761;51.542;16.450;2022-12-11T09:11:26;2.85;65.17
36818;DHT22;22761;51.542;16.450;2022-12-11T09:13:54;2.83;65.53
36818;DHT22;22761;51.542;16.450;2022-12-11T09:16:24;2.85;65.23
36818;DHT22;22761;51.542;16.450;2022-12-11T09:18:54;2.79;65.62
36818;DHT22;22761;51.542;16.450;2022-12-11T09:21:26;2.79;65.62
36818;DHT22;22761;51.542;16.450;2022-12-11T09:23:58;2.83;65.72
36818;DHT22;22761;51.542;16.450;2022-12-11T09:26:28;2.86;65.46
36818;DHT22;22761;51.542;16.450;2022-12-11T09:28:57;2.93;64.64
36818;DHT22;22761;51.542;16.450;2022-12-11T09:31:29;2.92;64.68
36818;DHT22;22761;51.542;16.450;2022-12-11T09:34:06;2.92;65.26
36818;DHT22;22761;51.542;16.450;2022-12-11T09:36:33;2.99;64.90
36818;DHT22;22761;51.542;16.450;2022-12-11T09:39:04;2.99;64.97
36818;DHT22;22761;51.542;16.450;2022-12-11T09:44:52;3.10;64.63
36818;DHT22;22761;51.542;16.450;2022-12-11T09:47:41;3.07;64.74
36818;DHT22;22761;51.542;16.450;2022-12-11T09:50:26;3.11;64.34
36818;DHT22;22761;51.542;16.450;2022-12-11T09:53:28;3.06;63.68
36818;DHT22;22761;51.542;16.450;2022-12-11T10:01:25;3.03;64.42
36818;DHT22;22761;51.542;16.450;2022-12-11T10:07:19;3.04;64.65
36818;DHT22;22761;51.542;16.450;2022-12-11T10:18:18;2.89;64.00
36818;DHT22;22761;51.542;16.450;2022-12-11T10:20:52;2.83;64.54
36818;DHT22;22761;51.542;16.450;2022-12-11T10:23:24;2.86;64.77
36818;DHT22;22761;51.542;16.450;2022-12-11T10:26:08;2.91;64.19
36818;DHT22;22761;51.542;16.450;2022-12-11T10:28:35;2.86;64.44
36818;DHT22;22761;51.542;16.450;2022-12-11T10:31:16;2.91;64.87
36818;DHT22;22761;51.542;16.450;2022-12-11T10:38:58;2.91;64.74
36818;DHT22;22761;51.542;16.450;2022-12-11T10:41:40;2.93;64.54
36818;DHT22;22761;51.542;16.450;2022-12-11T10:44:24;2.98;64.51
36818;DHT22;22761;51.542;16.450;2022-12-11T10:47:11;2.95;64.40
36818;DHT22;22761;51.542;16.450;2022-12-11T10:49:53;2.91;64.05
36818;DHT22;22761;51.542;16.450;2022-12-11T10:52:34;2.89;64.60
36818;DHT22;22761;51.542;16.450;2022-12-11T10:55:16;2.93;63.87
36818;DHT22;22761;51.542;16.450;2022-12-11T10:57:37;2.95;64.37
36818;DHT22;22761;51.542;16.450;2022-12-11T11:00:25;2.95;64.20
36818;DHT22;22761;51.542;16.450;2022-12-11T11:02:38;2.95;64.28
36818;DHT22;22761;51.542;16.450;2022-12-11T11:05:32;2.91;64.36
36818;DHT22;22761;51.542;16.450;2022-12-11T11:10:57;2.79;64.71
36818;DHT22;22761;51.542;16.450;2022-12-11T11:13:29;2.78;65.00
36818;DHT22;22761;51.542;16.450;2022-12-11T11:16:06;2.82;65.11
36818;DHT22;22761;51.542;16.450;2022-12-11T11:19:00;2.88;64.92
36818;DHT22;22761;51.542;16.450;2022-12-11T11:21:27;2.92;64.76
36818;DHT22;22761;51.542;16.450;2022-12-11T11:23:56;2.92;64.71
36818;DHT22;22761;51.542;16.450;2022-12-11T11:26:23;2.96;64.56
36818;DHT22;22761;51.542;16.450;2022-12-11T11:28:54;2.96;64.22
36818;DHT22;22761;51.542;16.450;2022-12-11T11:31:34;2.93;63.94
36818;DHT22;22761;51.542;16.450;2022-12-11T11:34:07;2.92;64.02
36818;DHT22;22761;51.542;16.450;2022-12-11T11:36:37;2.91;64.19
36818;DHT22;22761;51.542;16.450;2022-12-11T11:39:25;2.88;64.10
36818;DHT22;22761;51.542;16.450;2022-12-11T11:42:18;2.85;64.49
36818;DHT22;22761;51.542;16.450;2022-12-11T11:44:48;2.86;63.92
36818;DHT22;22761;51.542;16.450;2022-12-11T11:47:23;2.85;63.31
36818;DHT22;22761;51.542;16.450;2022-12-11T11:50:18;2.83;63.53
36818;DHT22;22761;51.542;16.450;2022-12-11T11:55:35;2.88;63.50
36818;DHT22;22761;51.542;16.450;2022-12-11T12:00:42;2.89;62.63
36818;DHT22;22761;51.542;16.450;2022-12-11T12:03:19;2.89;63.28
36818;DHT22;22761;51.542;16.450;2022-12-11T12:06:06;2.88;62.57
36818;DHT22;22761;51.542;16.450;2022-12-11T12:08:50;2.82;62.81
36818;DHT22;22761;51.542;16.450;2022-12-11T12:25:41;2.76;62.77
36818;DHT22;22761;51.542;16.450;2022-12-11T12:34:27;2.68;62.38
36818;DHT22;22761;51.542;16.450;2022-12-11T12:47:50;2.63;62.60
36818;DHT22;22761;51.542;16.450;2022-12-11T12:50:22;2.60;62.16
36818;DHT22;22761;51.542;16.450;2022-12-11T12:52:51;2.53;62.47
36818;DHT22;22761;51.542;16.450;2022-12-11T12:55:26;2.50;62.67
36818;DHT22;22761;51.542;16.450;2022-12-11T12:58:04;2.50;63.04
36818;DHT22;22761;51.542;16.450;2022-12-11T13:00:39;2.50;63.02
36818;DHT22;22761;51.542;16.450;2022-12-11T13:03:27;2.53;62.68
36818;DHT22;22761;51.542;16.450;2022-12-11T13:06:06;2.54;61.95
36818;DHT22;22761;51.542;16.450;2022-12-11T13:08:47;2.53;61.53
36818;DHT22;22761;51.542;16.450;2022-12-11T13:11:18;2.51;61.66
36818;DHT22;22761;51.542;16.450;2022-12-11T13:14:02;2.50;61.59
36818;DHT22;22761;51.542;16.450;2022-12-11T13:16:26;2.53;61.08
36818;DHT22;22761;51.542;16.450;2022-12-11T13:18:55;2.53;61.42
36818;DHT22;22761;51.542;16.450;2022-12-11T13:21:36;2.54;61.58
36818;DHT22;22761;51.542;16.450;2022-12-11T13:26:52;2.60;60.98
36818;DHT22;22761;51.542;16.450;2022-12-11T13:29:39;2.64;60.46
36818;DHT22;22761;51.542;16.450;2022-12-11T13:34:59;2.74;60.30
36818;DHT22;22761;51.542;16.450;2022-12-11T13:37:42;2.69;59.93
36818;DHT22;22761;51.542;16.450;2022-12-11T13:40:20;2.71;60.61
36818;DHT22;22761;51.542;16.450;2022-12-11T13:43:05;2.75;60.33
36818;DHT22;22761;51.542;16.450;2022-12-11T13:45:50;2.75;59.57
36818;DHT22;22761;51.542;16.450;2022-12-11T13:48:32;2.74;59.90
36818;DHT22;22761;51.542;16.450;2022-12-11T13:51:03;2.72;59.27
36818;DHT22;22761;51.542;16.450;2022-12-11T13:53:33;2.68;59.18
36818;DHT22;22761;51.542;16.450;2022-12-11T13:56:05;2.64;59.78
36818;DHT22;22761;51.542;16.450;2022-12-11T13:58:40;2.65;59.74
36818;DHT22;22761;51.542;16.450;2022-12-11T14:01:22;2.65;59.02
36818;DHT22;22761;51.542;16.450;2022-12-11T14:03:54;2.55;60.09
36818;DHT22;22761;51.542;16.450;2022-12-11T14:06:24;2.58;59.74
36818;DHT22;22761;51.542;16.450;2022-12-11T14:08:56;2.57;60.67
36818;DHT22;22761;51.542;16.450;2022-12-11T14:11:37;2.60;60.36
36818;DHT22;22761;51.542;16.450;2022-12-11T14:14:23;2.53;60.49
36818;DHT22;22761;51.542;16.450;2022-12-11T14:16:52;2.54;60.84
36818;DHT22;22761;51.542;16.450;2022-12-11T14:19:28;2.61;60.35
36818;DHT22;22761;51.542;16.450;2022-12-11T14:22:04;2.60;60.74
36818;DHT22;22761;51.542;16.450;2022-12-11T14:24:36;2.54;60.70
36818;DHT22;22761;51.542;16.450;2022-12-11T14:27:15;2.50;60.58
36818;DHT22;22761;51.542;16.450;2022-12-11T14:29:40;2.47;60.63
36818;DHT22;22761;51.542;16.450;2022-12-11T14:32:37;2.44;60.72
36818;DHT22;22761;51.542;16.450;2022-12-11T14:35:31;2.44;61.06
36818;DHT22;22761;51.542;16.450;2022-12-11T14:38:15;2.41;60.94
36818;DHT22;22761;51.542;16.450;2022-12-11T14:42:04;2.43;61.03
36818;DHT22;22761;51.542;16.450;2022-12-11T14:44:15;2.43;61.15
36818;DHT22;22761;51.542;16.450;2022-12-11T14:46:49;2.38;61.32
36818;DHT22;22761;51.542;16.450;2022-12-11T14:49:25;2.40;61.19
36818;DHT22;22761;51.542;16.450;2022-12-11T14:51:55;2.30;61.69
36818;DHT22;22761;51.542;16.450;2022-12-11T14:54:34;2.30;62.24
36818;DHT22;22761;51.542;16.450;2022-12-11T14:57:03;2.32;61.85
36818;DHT22;22761;51.542;16.450;2022-12-11T14:59:44;2.27;62.04
36818;DHT22;22761;51.542;16.450;2022-12-11T15:02:35;2.27;62.23
36818;DHT22;22761;51.542;16.450;2022-12-11T15:05:16;2.19;62.48
36818;DHT22;22761;51.542;16.450;2022-12-11T15:10:52;2.05;63.15
36818;DHT22;22761;51.542;16.450;2022-12-11T15:13:11;2.08;63.24
36818;DHT22;22761;51.542;16.450;2022-12-11T15:15:45;2.05;63.33
36818;DHT22;22761;51.542;16.450;2022-12-11T15:18:35;2.06;63.44
36818;DHT22;22761;51.542;16.450;2022-12-11T15:21:03;2.02;63.83
36818;DHT22;22761;51.542;16.450;2022-12-11T15:26:18;2.08;63.88
36818;DHT22;22761;51.542;16.450;2022-12-11T15:28:46;2.02;64.28
36818;DHT22;22761;51.542;16.450;2022-12-11T15:31:26;2.05;64.33
36818;DHT22;22761;51.542;16.450;2022-12-11T15:33:54;2.02;64.61
36818;DHT22;22761;51.542;16.450;2022-12-11T15:36:33;2.03;64.85
36818;DHT22;22761;51.542;16.450;2022-12-11T15:39:04;2.03;64.97
36818;DHT22;22761;51.542;16.450;2022-12-11T15:41:34;2.01;65.29
36818;DHT22;22761;51.542;16.450;2022-12-11T15:44:03;1.99;65.69
36818;DHT22;22761;51.542;16.450;2022-12-11T15:46:36;1.95;65.99
36818;DHT22;22761;51.542;16.450;2022-12-11T15:49:12;1.95;66.31
36818;DHT22;22761;51.542;16.450;2022-12-11T15:51:36;1.96;66.49
36818;DHT22;22761;51.542;16.450;2022-12-11T15:54:04;2.01;66.50
36818;DHT22;22761;51.542;16.450;2022-12-11T15:56:35;2.01;66.52
36818;DHT22;22761;51.542;16.450;2022-12-11T15:59:04;2.03;66.64
36818;DHT22;22761;51.542;16.450;2022-12-11T16:01:33;1.96;66.77
36818;DHT22;22761;51.542;16.450;2022-12-11T16:04:01;1.93;67.14
36818;DHT22;22761;51.542;16.450;2022-12-11T16:06:29;1.92;67.41
36818;DHT22;22761;51.542;16.450;2022-12-11T16:08:57;1.88;67.68
36818;DHT22;22761;51.542;16.450;2022-12-11T16:11:25;1.91;67.81
36818;DHT22;22761;51.542;16.450;2022-12-11T16:13:53;1.88;68.04
36818;DHT22;22761;51.542;16.450;2022-12-11T16:16:20;1.88;68.23
36818;DHT22;22761;51.542;16.450;2022-12-11T16:18:50;1.88;68.31
36818;DHT22;22761;51.542;16.450;2022-12-11T16:21:18;1.88;68.34
36818;DHT22;22761;51.542;16.450;2022-12-11T16:23:50;1.79;68.49
36818;DHT22;22761;51.542;16.450;2022-12-11T16:26:19;1.82;68.99
36818;DHT22;22761;51.542;16.450;2022-12-11T16:28:48;1.77;69.12
36818;DHT22;22761;51.542;16.450;2022-12-11T16:31:16;1.74;69.38
36818;DHT22;22761;51.542;16.450;2022-12-11T16:33:46;1.77;69.46
36818;DHT22;22761;51.542;16.450;2022-12-11T16:36:16;1.74;69.33
36818;DHT22;22761;51.542;16.450;2022-12-11T16:38:47;1.70;69.39
36818;DHT22;22761;51.542;16.450;2022-12-11T16:41:17;1.67;69.75
36818;DHT22;22761;51.542;16.450;2022-12-11T16:43:47;1.70;70.17
36818;DHT22;22761;51.542;16.450;2022-12-11T16:46:23;1.75;70.23
36818;DHT22;22761;51.542;16.450;2022-12-11T16:48:51;1.74;69.84
36818;DHT22;22761;51.542;16.450;2022-12-11T16:51:19;1.77;69.83
36818;DHT22;22761;51.542;16.450;2022-12-11T16:53:48;1.79;69.94
36818;DHT22;22761;51.542;16.450;2022-12-11T16:56:19;1.82;69.92
36818;DHT22;22761;51.542;16.450;2022-12-11T16:58:47;1.79;69.94
36818;DHT22;22761;51.542;16.450;2022-12-11T17:01:16;1.79;70.23
36818;DHT22;22761;51.542;16.450;2022-12-11T17:03:45;1.77;70.26
36818;DHT22;22761;51.542;16.450;2022-12-11T17:06:17;1.75;70.51
36818;DHT22;22761;51.542;16.450;2022-12-11T17:08:46;1.74;70.48
36818;DHT22;22761;51.542;16.450;2022-12-11T17:11:18;1.73;70.72
36818;DHT22;22761;51.542;16.450;2022-12-11T17:13:57;1.74;70.67
36818;DHT22;22761;51.542;16.450;2022-12-11T17:16:27;1.67;70.82
36818;DHT22;22761;51.542;16.450;2022-12-11T17:19:00;1.63;71.07
36818;DHT22;22761;51.542;16.450;2022-12-11T17:21:32;1.63;71.29
36818;DHT22;22761;51.542;16.450;2022-12-11T17:24:02;1.63;71.35
36818;DHT22;22761;51.542;16.450;2022-12-11T17:26:32;1.67;71.32
36818;DHT22;22761;51.542;16.450;2022-12-11T17:29:00;1.65;71.15
36818;DHT22;22761;51.542;16.450;2022-12-11T17:31:30;1.61;71.19
36818;DHT22;22761;51.542;16.450;2022-12-11T17:33:58;1.63;71.17
36818;DHT22;22761;51.542;16.450;2022-12-11T17:36:28;1.56;71.07
36818;DHT22;22761;51.542;16.450;2022-12-11T17:38:57;1.51;71.18